M/s Straumvik — LEYJ — position and weather

sailwx.info

Track history (hours):
 
Tides and Currents Weather Stations Pressure Air Temp Water Temp Dewpoint Dewpoint Depression Visibility Wind Speed Wind Dir Waves Ship Positions

M/s Straumvik

Last reported at 2014-Aug-19 22:33 UTC. Time now 2014-Aug-21 04:24 UTC.
Position N 69°34' E 018°48'.

Length 50 m; draft 5 m.

Type: Ship. MMSI: 258260000.

Date/timePositionNaut miles runAvg speedWind from/ knotsBaromVisibWave heightAir tempDewpointWater temp
2014-Aug-19 22:33N 69°34' E 018°48'9 9.3
2014-Aug-19 21:33N 69°42' E 019°02'2 0.2
2014-Aug-19 12:10N 69°44' E 019°05'5 8.8
2014-Aug-19 11:33N 69°39' E 018°58'0 0.1
2014-Aug-19 10:33N 69°39' E 018°58'6 5.8
2014-Aug-19 09:30N 69°34' E 018°48'4 0.2
2014-Aug-18 13:33N 69°38' E 018°56'5 4.8
2014-Aug-18 12:33N 69°42' E 019°01'0 0.0
2014-Aug-18 11:26N 69°42' E 019°01'0 0.0
2014-Aug-18 10:26N 69°42' E 019°01'0 0.0
2014-Aug-18 09:27N 69°42' E 019°01'109 6.0
2014-Aug-17 15:08N 70°44' E 023°26'4 0.2
2014-Aug-16 15:28N 70°41' E 023°35'2 0.9
2014-Aug-16 13:31N 70°40' E 023°40'0 0.0
2014-Aug-16 12:27N 70°40' E 023°40'0 0.0
2014-Aug-16 11:33N 70°40' E 023°40'7 6.9
2014-Aug-16 10:29N 70°37' E 023°19'8 8.8
2014-Aug-16 09:33N 70°32' E 023°00'  
2014-Aug-10 10:11N 67°39' E 014°20'810.6
2014-Aug-10 09:28N 67°32' E 014°23'910.2
2014-Aug-10 08:33N 67°22' E 014°24'1010.1
2014-Aug-10 07:33N 67°14' E 014°10'2110.1
2014-Aug-10 05:31N 66°59' E 013°34'30 9.6
2014-Aug-10 02:26N 66°36' E 012°46'9 9.9
2014-Aug-10 01:33N 66°29' E 012°35'8 8.3
2014-Aug-10 00:33N 66°22' E 012°22'0 0.0
2014-Aug-09 23:33N 66°22' E 012°22'0 0.0
2014-Aug-09 22:33N 66°22' E 012°22'  
Track history (hours):
 
Tides and Currents Weather Stations Pressure Air Temp Water Temp Dewpoint Dewpoint Depression Visibility Wind Speed Wind Dir Waves Ship Positions

M/s Straumvik

Last reported at 2014-Aug-19 22:33 UTC. Time now 2014-Aug-21 04:24 UTC.
Position N 69°34' E 018°48'.

Length 50 m; draft 5 m.

Type: Ship. MMSI: 258260000.

Date/timePositionNaut miles runAvg speedWind from/ knotsBaromVisibWave heightAir tempDewpointWater temp
2014-Aug-19 22:33N 69°34' E 018°48'9 9.3
2014-Aug-19 21:33N 69°42' E 019°02'2 0.2
2014-Aug-19 12:10N 69°44' E 019°05'5 8.8
2014-Aug-19 11:33N 69°39' E 018°58'0 0.1
2014-Aug-19 10:33N 69°39' E 018°58'6 5.8
2014-Aug-19 09:30N 69°34' E 018°48'4 0.2
2014-Aug-18 13:33N 69°38' E 018°56'5 4.8
2014-Aug-18 12:33N 69°42' E 019°01'0 0.0
2014-Aug-18 11:26N 69°42' E 019°01'0 0.0
2014-Aug-18 10:26N 69°42' E 019°01'0 0.0
2014-Aug-18 09:27N 69°42' E 019°01'109 6.0
2014-Aug-17 15:08N 70°44' E 023°26'4 0.2
2014-Aug-16 15:28N 70°41' E 023°35'2 0.9
2014-Aug-16 13:31N 70°40' E 023°40'0 0.0
2014-Aug-16 12:27N 70°40' E 023°40'0 0.0
2014-Aug-16 11:33N 70°40' E 023°40'7 6.9
2014-Aug-16 10:29N 70°37' E 023°19'8 8.8
2014-Aug-16 09:33N 70°32' E 023°00'  
2014-Aug-10 10:11N 67°39' E 014°20'810.6
2014-Aug-10 09:28N 67°32' E 014°23'910.2
2014-Aug-10 08:33N 67°22' E 014°24'1010.1
2014-Aug-10 07:33N 67°14' E 014°10'2110.1
2014-Aug-10 05:31N 66°59' E 013°34'30 9.6
2014-Aug-10 02:26N 66°36' E 012°46'9 9.9
2014-Aug-10 01:33N 66°29' E 012°35'8 8.3
2014-Aug-10 00:33N 66°22' E 012°22'0 0.0
2014-Aug-09 23:33N 66°22' E 012°22'0 0.0
2014-Aug-09 22:33N 66°22' E 012°22'  

Dump ship's entire track history